Time;durP1;ratioP1;P1;durP2;ratioP2;P2;SDS_P1;SDS_P2;PMS_P1;PMS_P2;Temp;Humidity;BMP_temperature;BMP_pressure;BME280_temperature;BME280_humidity;BME280_pressure;Samples;Min_cycle;Max_cycle;Signal;HPM_P1;HPM_P2
2022/06/19 00:02:12;;;;;;;6.72;2.70;;;;;;;23.73;52.57;95793.81;4995625;28;20041;-79
2022/06/19 00:04:39;;;;;;;5.45;2.75;;;;;;;23.64;52.84;95793.47;4992168;28;20033;-79
2022/06/19 00:07:07;;;;;;;8.23;2.75;;;;;;;23.61;52.98;95793.13;4979763;28;20038;-79
2022/06/19 00:09:37;;;;;;;15.38;3.38;;;;;;;23.54;53.26;95798.72;5000083;28;20062;-79
2022/06/19 00:12:03;;;;;;;10.82;2.67;;;;;;;23.46;53.37;95793.78;4986230;28;20042;-79
2022/06/19 00:14:29;;;;;;;13.80;3.75;;;;;;;23.42;53.51;95784.59;4990263;28;20034;-79
2022/06/19 00:16:55;;;;;;;12.60;2.70;;;;;;;23.50;52.51;95779.59;5008682;28;20034;-79
2022/06/19 00:19:21;;;;;;;9.30;3.08;;;;;;;23.40;53.08;95778.66;4983543;28;20463;-79
2022/06/19 00:21:47;;;;;;;13.98;2.83;;;;;;;23.40;52.72;95784.03;4982138;28;20025;-78
2022/06/19 00:24:13;;;;;;;9.68;2.78;;;;;;;23.34;53.08;95769.78;4985345;28;20034;-79
2022/06/19 00:26:39;;;;;;;11.00;3.70;;;;;;;23.35;53.16;95775.94;4988430;28;20019;-79
2022/06/19 00:29:05;;;;;;;9.48;2.58;;;;;;;23.32;53.07;95763.03;4980080;28;20030;-81
2022/06/19 00:31:30;;;;;;;9.02;2.75;;;;;;;23.24;53.32;95769.66;5002958;28;20041;-78
2022/06/19 00:33:56;;;;;;;10.02;2.85;;;;;;;23.23;53.27;95758.09;4998871;28;20026;-80
2022/06/19 00:36:25;;;;;;;8.60;2.83;;;;;;;23.28;53.24;95758.16;5001044;28;20030;-80
2022/06/19 00:38:51;;;;;;;8.73;2.47;;;;;;;23.18;53.40;95754.56;4998568;28;20049;-79
2022/06/19 00:41:16;;;;;;;8.55;2.50;;;;;;;23.16;53.60;95748.63;4986476;28;20030;-79
2022/06/19 00:44:07;;;;;;;13.70;3.33;;;;;;;23.12;53.38;95748.31;5008278;28;20037;-79
2022/06/19 00:46:54;;;;;;;8.68;2.72;;;;;;;23.11;53.25;95735.97;4991288;28;20030;-79
2022/06/19 00:49:42;;;;;;;7.10;2.72;;;;;;;23.12;53.17;95731.41;4987048;28;20038;-79
2022/06/19 00:52:14;;;;;;;9.13;2.85;;;;;;;23.04;53.40;95735.34;4996716;28;20026;-79
2022/06/19 00:54:49;;;;;;;11.18;2.75;;;;;;;23.03;53.53;95737.19;4997810;28;20053;-79
2022/06/19 00:57:16;;;;;;;9.80;2.47;;;;;;;22.95;53.89;95736.84;4977131;28;20084;-79
2022/06/19 00:59:46;;;;;;;11.30;3.47;;;;;;;22.88;54.63;95752.28;4997867;28;20041;-79
2022/06/19 01:02:13;;;;;;;15.23;3.33;;;;;;;22.88;54.10;95752.28;5005957;28;20388;-79
2022/06/19 01:04:44;;;;;;;12.25;3.13;;;;;;;22.85;53.70;95752.78;5002805;28;20033;-80
2022/06/19 01:07:10;;;;;;;8.07;2.70;;;;;;;22.81;53.45;95749.78;4996157;28;20038;-79
2022/06/19 01:09:36;;;;;;;10.55;3.45;;;;;;;22.74;53.58;95747.28;4998677;28;20038;-79
2022/06/19 01:12:04;;;;;;;12.77;3.42;;;;;;;22.78;52.75;95734.19;4977270;28;20050;-79
2022/06/19 01:14:31;;;;;;;12.00;3.38;;;;;;;22.89;51.91;95732.44;4994486;28;20018;-79
2022/06/19 01:17:01;;;;;;;12.20;3.40;;;;;;;22.82;52.35;95738.78;5002023;28;20064;-79
2022/06/19 01:19:30;;;;;;;8.43;2.75;;;;;;;22.67;53.58;95729.72;5006853;28;20041;-80
2022/06/19 01:22:08;;;;;;;11.05;3.08;;;;;;;22.70;53.24;95714.00;4995271;28;20022;-79
2022/06/19 01:24:37;;;;;;;9.77;3.30;;;;;;;22.63;53.45;95721.38;4993000;28;20088;-79
2022/06/19 01:27:05;;;;;;;8.20;2.63;;;;;;;22.61;53.81;95712.78;4988958;28;20038;-79
2022/06/19 01:29:33;;;;;;;8.60;2.97;;;;;;;22.46;54.94;95723.28;4981643;28;20030;-79
2022/06/19 01:32:03;;;;;;;12.88;3.42;;;;;;;22.49;54.66;95706.72;4979341;28;20026;-79
2022/06/19 01:34:41;;;;;;;12.23;3.35;;;;;;;22.45;55.17;95711.75;4997313;28;20065;-79
2022/06/19 01:37:17;;;;;;;9.73;2.85;;;;;;;22.33;56.23;95714.56;4991707;28;20038;-79
2022/06/19 01:39:54;;;;;;;10.40;3.38;;;;;;;22.23;56.95;95711.72;4996707;28;20042;-80
2022/06/19 01:42:21;;;;;;;11.73;3.40;;;;;;;22.20;57.74;95709.53;4989117;28;20049;-78
2022/06/19 01:44:47;;;;;;;7.90;2.90;;;;;;;22.16;57.90;95707.56;4996662;28;20100;-79
2022/06/19 01:47:14;;;;;;;9.75;2.67;;;;;;;22.08;58.55;95708.78;4998952;28;20096;-79
2022/06/19 01:49:45;;;;;;;7.63;2.50;;;;;;;22.08;58.58;95706.91;5001071;28;20511;-79
2022/06/19 01:52:11;;;;;;;11.55;2.97;;;;;;;22.10;58.55;95701.31;5007010;28;20034;-79
2022/06/19 01:54:41;;;;;;;12.27;3.28;;;;;;;22.05;58.94;95696.69;4988675;28;20129;-79
2022/06/19 01:57:10;;;;;;;9.15;2.90;;;;;;;22.05;58.18;95701.22;4996327;28;20069;-80
2022/06/19 01:59:39;;;;;;;8.25;3.20;;;;;;;22.06;58.31;95698.28;4997885;28;20101;-80
2022/06/19 02:02:06;;;;;;;10.38;3.28;;;;;;;21.98;58.63;95695.22;5001564;28;20038;-79
2022/06/19 02:04:32;;;;;;;11.38;3.33;;;;;;;21.93;58.70;95695.13;4983314;28;20060;-79
2022/06/19 02:07:03;;;;;;;8.80;3.33;;;;;;;21.98;58.24;95695.22;4984511;28;20055;-79
2022/06/19 02:09:29;;;;;;;8.07;3.17;;;;;;;21.99;57.26;95691.50;5007817;28;20323;-79
2022/06/19 02:11:57;;;;;;;10.13;3.25;;;;;;;22.07;56.59;95688.41;5008200;28;20030;-79
2022/06/19 02:14:23;;;;;;;13.13;3.00;;;;;;;22.12;55.72;95680.44;4992204;28;20038;-80
2022/06/19 02:16:50;;;;;;;8.32;2.42;;;;;;;22.15;55.59;95689.88;4995446;28;20057;-79
2022/06/19 02:19:17;;;;;;;8.98;2.72;;;;;;;22.13;55.75;95682.06;4999590;28;20173;-79
2022/06/19 02:21:48;;;;;;;10.60;3.25;;;;;;;22.08;55.60;95673.97;4985013;28;20402;-80
2022/06/19 02:24:19;;;;;;;16.63;3.58;;;;;;;22.02;55.79;95674.94;4986245;28;20046;-79
2022/06/19 02:26:47;;;;;;;17.35;4.00;;;;;;;22.04;55.71;95673.66;5003142;28;20049;-79
2022/06/19 02:29:16;;;;;;;11.18;3.00;;;;;;;22.03;55.73;95676.56;5000319;28;20047;-79
2022/06/19 02:31:46;;;;;;;13.82;4.70;;;;;;;22.01;55.44;95663.44;4987275;28;20044;-80
2022/06/19 02:34:36;;;;;;;9.60;3.28;;;;;;;22.03;55.29;95663.16;4978369;28;20046;-79
2022/06/19 02:37:05;;;;;;;10.48;3.05;;;;;;;21.94;55.80;95667.34;5012919;28;20130;-79
2022/06/19 02:39:53;;;;;;;8.85;2.72;;;;;;;21.96;56.01;95667.88;4998445;28;20026;-79
2022/06/19 02:42:27;;;;;;;11.35;2.92;;;;;;;21.80;56.62;95656.97;5017621;28;20490;-79
2022/06/19 02:44:56;;;;;;;13.75;2.95;;;;;;;21.81;56.77;95666.59;4993402;28;20047;-79
2022/06/19 02:47:24;;;;;;;10.18;2.97;;;;;;;21.83;56.38;95658.31;5006566;28;20054;-79
2022/06/19 02:49:50;;;;;;;12.48;3.00;;;;;;;21.81;56.77;95663.91;4997220;28;20172;-79
2022/06/19 02:52:16;;;;;;;17.60;3.75;;;;;;;21.79;56.95;95655.31;4999771;28;20026;-79
2022/06/19 02:54:41;;;;;;;9.77;2.50;;;;;;;21.78;56.99;95659.06;5002391;28;20030;-79
2022/06/19 02:57:10;;;;;;;12.27;4.07;;;;;;;21.76;56.97;95653.13;4999629;28;20030;-79
2022/06/19 02:59:36;;;;;;;7.93;3.15;;;;;;;21.77;56.98;95656.63;4999603;28;20042;-79
2022/06/19 03:02:01;;;;;;;11.30;3.72;;;;;;;21.73;57.07;95656.31;4984115;28;20155;-79
2022/06/19 03:04:34;;;;;;;9.90;2.83;;;;;;;21.65;57.47;95659.38;4988585;28;20180;-79
2022/06/19 03:06:59;;;;;;;8.70;2.72;;;;;;;21.51;58.87;95671.47;4985204;28;20104;-79
2022/06/19 03:09:25;;;;;;;6.93;2.70;;;;;;;21.44;59.77;95668.94;4994562;28;20034;-79
2022/06/19 03:11:51;;;;;;;8.25;2.58;;;;;;;21.28;61.83;95678.50;5000010;28;20169;-79
2022/06/19 03:14:17;;;;;;;11.02;3.22;;;;;;;21.16;62.69;95686.59;4990400;28;20172;-79
2022/06/19 03:16:44;;;;;;;7.20;2.17;;;;;;;21.09;62.97;95695.78;4978001;28;20562;-79
2022/06/19 03:19:10;;;;;;;8.80;2.95;;;;;;;21.05;63.27;95692.78;4996164;28;20038;-79
2022/06/19 03:21:35;;;;;;;14.63;2.80;;;;;;;21.05;63.17;95687.44;5002186;28;20034;-79
2022/06/19 03:24:01;;;;;;;14.80;3.30;;;;;;;21.05;64.65;95686.63;4997713;28;20403;-79
2022/06/19 03:26:26;;;;;;;8.63;2.70;;;;;;;20.92;64.59;95685.88;4974104;28;20041;-79
2022/06/19 03:28:53;;;;;;;13.35;3.42;;;;;;;20.83;65.47;95676.59;4981221;28;20070;-79
2022/06/19 03:31:22;;;;;;;13.20;3.78;;;;;;;20.98;63.95;95667.25;4994460;28;20042;-79
2022/06/19 03:33:48;;;;;;;13.48;3.38;;;;;;;20.90;64.51;95668.44;5005551;28;20514;-79
2022/06/19 03:36:13;;;;;;;9.80;2.50;;;;;;;20.88;65.04;95681.22;4983266;28;20119;-79
2022/06/19 03:38:39;;;;;;;12.88;3.05;;;;;;;20.75;67.20;95690.31;4997621;28;20030;-80
2022/06/19 03:41:05;;;;;;;17.05;2.80;;;;;;;20.78;68.39;95695.19;4980371;28;20495;-79
2022/06/19 03:43:33;;;;;;;9.82;2.72;;;;;;;20.78;66.52;95692.53;4999711;28;20034;-79
2022/06/19 03:46:00;;;;;;;12.48;3.20;;;;;;;20.69;67.41;95681.41;4992151;28;20030;-79
2022/06/19 03:48:25;;;;;;;7.88;2.70;;;;;;;20.69;68.08;95672.56;5001057;28;20069;-79
2022/06/19 03:50:52;;;;;;;14.13;3.15;;;;;;;20.71;67.40;95670.47;4994248;28;20042;-78
2022/06/19 03:53:18;;;;;;;9.07;3.08;;;;;;;20.81;66.26;95670.69;4994086;28;20136;-79
2022/06/19 03:55:45;;;;;;;10.73;2.78;;;;;;;20.83;66.60;95670.47;5001962;28;20027;-79
2022/06/19 03:58:11;;;;;;;8.20;3.60;;;;;;;20.88;66.98;95671.34;4976652;28;20085;-79
2022/06/19 04:00:36;;;;;;;14.35;2.67;;;;;;;20.92;67.28;95669.00;4991800;28;20042;-79
2022/06/19 04:03:03;;;;;;;11.10;3.20;;;;;;;20.95;67.14;95671.22;4980064;28;20069;-79
2022/06/19 04:05:29;;;;;;;9.07;3.08;;;;;;;20.97;66.43;95658.44;4998669;28;20064;-79
2022/06/19 04:07:55;;;;;;;11.82;2.88;;;;;;;21.07;65.24;95663.16;5004364;28;20030;-79
2022/06/19 04:10:21;;;;;;;11.43;3.30;;;;;;;21.11;65.16;95651.72;4973214;28;20026;-80
2022/06/19 04:12:47;;;;;;;7.85;2.88;;;;;;;21.14;64.85;95647.78;5006404;28;20038;-79
2022/06/19 04:15:13;;;;;;;13.48;3.00;;;;;;;21.19;65.21;95654.03;4978708;28;20046;-79
2022/06/19 04:17:39;;;;;;;9.75;3.03;;;;;;;21.24;65.08;95657.84;4995899;28;20038;-79
2022/06/19 04:20:09;;;;;;;12.00;3.55;;;;;;;21.32;65.22;95666.28;5002902;28;20030;-79
2022/06/19 04:22:36;;;;;;;7.63;3.03;;;;;;;21.28;65.38;95665.13;4981343;28;20515;-79
2022/06/19 04:25:03;;;;;;;15.25;3.40;;;;;;;21.34;65.14;95671.41;4998119;28;20617;-79
2022/06/19 04:27:31;;;;;;;10.95;2.72;;;;;;;21.39;65.05;95661.66;4985082;28;20100;-79
2022/06/19 04:29:57;;;;;;;7.75;2.53;;;;;;;21.41;65.59;95662.19;4982016;28;20031;-79
2022/06/19 04:32:22;;;;;;;8.55;2.78;;;;;;;21.43;65.91;95667.31;4981542;28;20092;-79
2022/06/19 04:34:48;;;;;;;9.63;2.90;;;;;;;21.52;65.83;95665.03;4991759;28;20034;-79
2022/06/19 04:37:14;;;;;;;9.13;3.20;;;;;;;21.49;67.43;95662.84;4997220;28;20042;-79
2022/06/19 04:39:39;;;;;;;15.15;3.22;;;;;;;21.51;67.45;95669.59;5004749;28;20037;-79
2022/06/19 04:42:06;;;;;;;11.45;3.13;;;;;;;21.56;67.07;95661.66;4988265;28;20033;-80
2022/06/19 04:44:32;;;;;;;13.80;3.28;;;;;;;21.59;68.03;95663.03;5000604;28;20041;-80
2022/06/19 04:46:58;;;;;;;10.40;3.25;;;;;;;21.63;67.81;95672.22;4998144;28;20034;-79
2022/06/19 04:49:23;;;;;;;12.77;3.60;;;;;;;21.66;68.15;95666.34;5001661;28;20038;-80
2022/06/19 04:51:49;;;;;;;9.88;2.83;;;;;;;21.75;68.40;95672.91;5005529;28;20048;-79
2022/06/19 04:54:15;;;;;;;12.23;3.05;;;;;;;21.84;68.19;95671.47;4982282;28;20034;-78
2022/06/19 04:56:41;;;;;;;9.55;3.22;;;;;;;21.96;67.16;95670.56;4982530;28;20042;-79
2022/06/19 04:59:07;;;;;;;11.18;3.00;;;;;;;22.05;66.09;95674.47;5002811;28;20065;-79
2022/06/19 05:01:37;;;;;;;9.45;3.65;;;;;;;22.16;65.29;95665.53;5000389;28;20034;-79
2022/06/19 05:04:05;;;;;;;9.50;2.83;;;;;;;22.30;66.01;95666.00;4999246;28;20045;-79
2022/06/19 05:06:31;;;;;;;10.88;3.58;;;;;;;22.22;66.59;95658.41;5003681;28;20049;-79
2022/06/19 05:08:58;;;;;;;9.98;2.88;;;;;;;22.30;66.12;95655.28;5001543;28;20054;-79
2022/06/19 05:11:27;;;;;;;11.68;3.08;;;;;;;22.44;64.97;95655.75;4992897;28;20225;-79
2022/06/19 05:13:53;;;;;;;12.27;3.17;;;;;;;22.52;64.57;95652.63;4987806;28;20569;-79
2022/06/19 05:16:21;;;;;;;11.43;2.75;;;;;;;22.76;63.60;95658.56;4995022;28;20037;-79
2022/06/19 05:18:49;;;;;;;11.75;3.85;;;;;;;22.93;62.63;95662.00;4985725;28;20034;-79
2022/06/19 05:21:16;;;;;;;13.48;2.85;;;;;;;22.97;62.39;95659.63;4983462;28;20046;-81
2022/06/19 05:23:45;;;;;;;9.80;2.83;;;;;;;23.05;61.57;95661.88;5001033;28;20039;-80
2022/06/19 05:26:20;;;;;;;15.55;4.28;;;;;;;23.22;62.08;95667.16;5000119;28;20034;-79
2022/06/19 05:28:48;;;;;;;9.13;2.97;;;;;;;23.33;61.83;95660.00;4997163;28;20076;-79
2022/06/19 05:31:14;;;;;;;14.00;3.03;;;;;;;23.46;61.99;95665.75;4997304;28;20041;-80
2022/06/19 05:33:40;;;;;;;14.95;3.50;;;;;;;23.58;63.29;95662.94;4978976;28;20033;-80
2022/06/19 05:36:06;;;;;;;18.42;3.97;;;;;;;23.78;61.27;95662.31;4992094;28;20042;-79
2022/06/19 05:38:32;;;;;;;9.48;2.85;;;;;;;23.86;61.18;95661.03;4999970;28;20030;-79
2022/06/19 05:41:00;;;;;;;10.93;2.95;;;;;;;23.87;61.14;95657.28;4984025;28;20038;-81
2022/06/19 05:43:28;;;;;;;9.05;2.95;;;;;;;24.15;59.83;95656.16;4981966;28;20045;-79
2022/06/19 05:45:56;;;;;;;13.27;3.60;;;;;;;24.02;60.53;95664.66;4992844;28;20870;-79
2022/06/19 05:48:23;;;;;;;10.52;3.03;;;;;;;24.17;61.30;95665.53;5001013;28;20073;-79
2022/06/19 05:51:00;;;;;;;10.30;2.95;;;;;;;24.39;59.60;95664.63;4987962;28;20041;-79
2022/06/19 05:53:29;;;;;;;11.63;3.90;;;;;;;24.57;58.83;95658.81;5000194;28;20041;-79
2022/06/19 05:55:55;;;;;;;13.85;3.17;;;;;;;24.96;57.58;95660.31;4981675;28;20049;-79
2022/06/19 05:58:21;;;;;;;14.77;3.35;;;;;;;25.25;56.42;95658.00;4992447;28;20038;-79
2022/06/19 06:00:47;;;;;;;11.65;3.05;;;;;;;25.37;55.35;95656.69;5004036;28;20034;-79
2022/06/19 06:03:14;;;;;;;13.43;3.83;;;;;;;25.52;54.80;95655.91;5001728;28;20074;-79
2022/06/19 06:05:40;;;;;;;13.05;3.63;;;;;;;25.62;53.78;95658.59;5009497;28;20029;-79
2022/06/19 06:08:06;;;;;;;7.32;3.25;;;;;;;25.88;54.02;95645.16;4999883;28;20038;-80
2022/06/19 06:10:31;;;;;;;11.85;3.45;;;;;;;26.24;53.72;95655.91;4999970;28;20038;-80
2022/06/19 06:12:57;;;;;;;9.13;3.28;;;;;;;26.23;53.45;95651.59;4987495;28;20033;-79
2022/06/19 06:15:23;;;;;;;11.20;3.22;;;;;;;26.71;52.46;95655.53;5003930;28;20142;-80
2022/06/19 06:17:48;;;;;;;10.38;3.35;;;;;;;26.41;52.88;95653.69;5003489;28;20045;-79
2022/06/19 06:20:14;;;;;;;14.15;3.90;;;;;;;26.99;51.37;95654.03;5004174;28;20045;-80
2022/06/19 06:22:40;;;;;;;14.48;3.58;;;;;;;27.20;50.60;95656.69;4982360;28;20384;-79
2022/06/19 06:25:06;;;;;;;10.70;3.80;;;;;;;27.47;48.54;95653.56;4995754;28;20507;-80
2022/06/19 06:27:32;;;;;;;10.25;3.80;;;;;;;27.93;47.73;95654.03;4998373;28;20061;-80
2022/06/19 06:29:58;;;;;;;15.43;3.65;;;;;;;27.75;47.70;95660.09;5005298;28;20087;-80
2022/06/19 06:32:24;;;;;;;13.43;4.00;;;;;;;27.98;47.49;95655.06;4991957;28;20034;-80
2022/06/19 06:34:49;;;;;;;11.27;3.72;;;;;;;28.11;46.58;95657.94;5003273;28;20105;-80
2022/06/19 06:37:15;;;;;;;11.30;3.17;;;;;;;28.54;45.32;95658.06;4994958;28;20029;-80
2022/06/19 06:39:41;;;;;;;10.15;3.40;;;;;;;28.94;43.79;95652.44;4984726;28;20095;-81
2022/06/19 06:42:07;;;;;;;10.60;3.95;;;;;;;29.15;42.68;95650.34;4993959;28;20030;-80
2022/06/19 06:44:32;;;;;;;18.67;4.32;;;;;;;29.31;42.82;95655.25;4987086;28;20033;-80
2022/06/19 06:47:01;;;;;;;13.55;4.32;;;;;;;29.43;43.32;95651.28;4996469;28;20793;-80
2022/06/19 06:49:28;;;;;;;14.15;3.70;;;;;;;29.54;41.69;95647.31;4984037;28;20041;-80
2022/06/19 06:51:53;;;;;;;16.20;4.45;;;;;;;29.97;42.09;95653.41;4999552;28;20034;-80
2022/06/19 06:54:19;;;;;;;13.65;4.25;;;;;;;30.04;42.82;95653.03;4997876;28;20046;-80
2022/06/19 06:56:45;;;;;;;15.93;4.25;;;;;;;30.41;41.40;95654.03;4986424;28;20061;-80
2022/06/19 06:59:11;;;;;;;12.05;3.60;;;;;;;30.63;41.89;95645.22;4975354;28;20073;-80
2022/06/19 07:01:37;;;;;;;11.25;3.25;;;;;;;30.34;41.51;95643.59;4982415;28;20041;-80
2022/06/19 07:04:03;;;;;;;10.00;3.67;;;;;;;30.60;41.99;95641.19;5002761;28;20038;-80
2022/06/19 07:06:30;;;;;;;15.00;3.78;;;;;;;30.95;41.56;95642.44;4998287;28;20057;-80
2022/06/19 07:08:57;;;;;;;11.13;4.10;;;;;;;31.34;38.41;95635.63;4988146;28;20126;-81
2022/06/19 07:11:26;;;;;;;14.50;4.43;;;;;;;31.18;36.03;95643.28;4985073;28;20050;-80
2022/06/19 07:13:52;;;;;;;14.50;4.32;;;;;;;31.62;35.72;95644.53;5004266;28;20112;-80
2022/06/19 07:16:18;;;;;;;16.95;3.92;;;;;;;31.67;34.89;95641.66;4985056;28;20066;-80
2022/06/19 07:18:47;;;;;;;19.50;4.63;;;;;;;31.92;33.89;95647.63;5000341;28;20030;-80
2022/06/19 07:21:13;;;;;;;15.40;4.40;;;;;;;31.27;34.47;95648.00;4996964;28;20049;-80
2022/06/19 07:23:39;;;;;;;16.77;4.78;;;;;;;31.37;34.73;95647.81;4990115;28;20549;-81
2022/06/19 07:26:13;;;;;;;12.15;4.10;;;;;;;31.76;34.51;95649.06;5007844;28;20511;-80
2022/06/19 07:28:40;;;;;;;16.40;4.70;;;;;;;31.88;34.50;95658.31;5001814;28;20107;-80
2022/06/19 07:31:06;;;;;;;12.82;4.63;;;;;;;32.44;33.46;95653.41;4994716;28;20124;-80
2022/06/19 07:33:37;;;;;;;14.32;4.70;;;;;;;32.89;33.21;95647.78;4979534;28;20042;-81
2022/06/19 07:36:14;;;;;;;12.75;3.92;;;;;;;32.60;31.82;95646.44;4993174;28;20043;-81
2022/06/19 07:38:40;;;;;;;12.18;4.80;;;;;;;32.61;31.87;95645.31;4988350;28;20035;-80
2022/06/19 07:41:06;;;;;;;15.20;4.35;;;;;;;33.03;32.16;95634.06;5006983;28;20326;-81
2022/06/19 07:43:32;;;;;;;15.27;3.95;;;;;;;33.40;32.31;95640.06;4990467;28;20025;-81
2022/06/19 07:45:58;;;;;;;13.23;3.92;;;;;;;33.61;32.25;95645.72;4990636;28;20118;-81
2022/06/19 07:51:08;;;;;;;15.27;4.25;;;;;;;33.50;31.99;95631.59;5005105;28;20033;-81
2022/06/19 07:53:34;;;;;;;12.80;3.88;;;;;;;33.75;32.31;95640.91;5010915;28;20380;-81
2022/06/19 07:56:00;;;;;;;14.07;4.60;;;;;;;33.24;32.49;95642.47;4999354;28;20126;-81
2022/06/19 07:58:25;;;;;;;16.55;5.32;;;;;;;33.34;32.56;95633.97;5000683;28;20041;-80
2022/06/19 08:00:52;;;;;;;17.35;5.15;;;;;;;33.68;31.71;95643.31;5012585;28;20049;-82
2022/06/19 08:03:18;;;;;;;17.58;4.07;;;;;;;34.08;31.78;95637.69;4992256;28;20472;-82
2022/06/19 08:05:46;;;;;;;15.40;4.60;;;;;;;34.19;31.41;95633.47;4989649;28;20030;-82
2022/06/19 08:08:27;;;;;;;18.00;4.43;;;;;;;34.54;31.18;95628.72;4986410;28;20038;-82
2022/06/19 08:10:56;;;;;;;15.38;4.47;;;;;;;35.19;30.69;95627.44;5003781;28;20117;-82
2022/06/19 08:13:24;;;;;;;12.00;4.22;;;;;;;35.03;31.17;95628.34;5004363;28;20026;-82
2022/06/19 08:15:55;;;;;;;16.17;4.65;;;;;;;34.90;30.94;95630.94;5002624;28;20038;-82
2022/06/19 08:18:21;;;;;;;14.10;4.88;;;;;;;35.14;30.40;95630.34;4993449;28;20089;-82
2022/06/19 08:20:48;;;;;;;15.98;5.30;;;;;;;35.10;31.01;95634.09;4987426;28;20117;-82
2022/06/19 08:23:14;;;;;;;12.43;4.97;;;;;;;35.40;30.44;95634.84;4983861;28;20092;-82
2022/06/19 08:25:42;;;;;;;14.27;4.85;;;;;;;34.71;30.68;95636.06;4991928;28;20116;-82
2022/06/19 08:28:08;;;;;;;17.95;5.22;;;;;;;34.40;30.68;95628.09;4991986;28;20061;-82
2022/06/19 08:30:39;;;;;;;19.33;4.50;;;;;;;34.89;30.91;95626.63;4996693;28;20076;-82
2022/06/19 08:33:07;;;;;;;13.40;5.57;;;;;;;35.15;30.81;95634.72;5008650;28;20041;-82
2022/06/19 08:35:40;;;;;;;14.90;4.97;;;;;;;35.27;29.70;95633.19;4999643;28;20116;-82
2022/06/19 08:38:12;;;;;;;17.42;5.80;;;;;;;35.29;30.56;95639.13;5016403;28;20720;-83
2022/06/19 08:40:59;;;;;;;14.73;4.90;;;;;;;34.86;30.30;95643.69;5013382;28;20045;-83
2022/06/19 08:43:28;;;;;;;14.85;4.97;;;;;;;35.00;30.75;95639.91;5014131;28;20038;-83
2022/06/19 08:46:12;;;;;;;11.43;5.00;;;;;;;35.82;29.47;95635.66;5006391;28;20034;-83
2022/06/19 08:49:08;;;;;;;10.93;5.18;;;;;;;36.34;30.00;95643.38;4990439;28;20034;-83
2022/06/19 08:51:55;;;;;;;16.02;6.25;;;;;;;35.82;29.27;95643.88;5012186;28;20033;-82
2022/06/19 08:55:02;;;;;;;16.30;5.85;;;;;;;36.24;29.00;95643.81;4997467;28;20061;-82
2022/06/19 08:57:37;;;;;;;20.75;6.00;;;;;;;35.99;28.93;95642.13;5003314;28;20129;-83
2022/06/19 09:00:11;;;;;;;18.67;5.85;;;;;;;36.32;29.57;95648.41;4984121;28;20057;-82
2022/06/19 09:03:20;;;;;;;14.00;5.97;;;;;;;36.26;29.52;95647.00;5010760;28;20045;-83
2022/06/19 09:06:17;;;;;;;17.58;6.85;;;;;;;36.39;29.03;95647.00;4970821;28;20041;-83
2022/06/19 09:09:28;;;;;;;15.20;6.05;;;;;;;36.00;29.19;95638.22;4992758;28;20050;-83
2022/06/19 09:12:18;;;;;;;17.25;8.07;;;;;;;36.29;28.64;95637.31;5002304;28;20640;-81
2022/06/19 09:15:15;;;;;;;11.07;6.32;;;;;;;36.64;28.38;95635.00;4987298;28;20125;-82
2022/06/19 09:17:59;;;;;;;15.63;7.65;;;;;;;35.97;28.37;95638.91;4999951;28;20030;-81
2022/06/19 09:20:37;;;;;;;17.90;6.70;;;;;;;35.81;29.16;95630.50;4983666;28;20097;-83
2022/06/19 09:23:28;;;;;;;14.63;6.82;;;;;;;36.04;29.56;95630.97;5000219;28;20053;-84
2022/06/19 09:26:10;;;;;;;13.20;6.60;;;;;;;36.05;28.71;95638.03;5004679;28;20107;-83
2022/06/19 09:29:03;;;;;;;12.20;7.50;;;;;;;36.32;28.63;95648.41;4985007;28;20053;-79
2022/06/19 09:32:01;;;;;;;17.00;6.32;;;;;;;35.76;28.67;95647.16;4999653;28;20054;-81
2022/06/19 09:34:36;;;;;;;10.57;7.20;;;;;;;36.46;27.84;95652.75;5012063;28;20049;-81
2022/06/19 09:37:13;;;;;;;12.90;7.40;;;;;;;35.60;28.98;95647.75;4977206;28;20038;-79
2022/06/19 09:39:49;;;;;;;14.43;7.05;;;;;;;36.24;28.26;95643.81;4984249;28;20038;-80
2022/06/19 09:42:22;;;;;;;15.32;7.15;;;;;;;36.42;28.20;95649.06;4992742;28;20042;-79
2022/06/19 09:45:34;;;;;;;12.60;6.75;;;;;;;37.05;27.58;95644.94;4991986;28;20058;-80
2022/06/19 09:48:08;;;;;;;13.55;7.60;;;;;;;36.73;27.85;95638.44;4989351;28;20041;-79
2022/06/19 09:50:46;;;;;;;11.73;6.93;;;;;;;36.15;27.82;95642.28;4995202;28;20188;-80
2022/06/19 09:53:18;;;;;;;16.63;7.72;;;;;;;36.92;26.99;95635.09;4977512;28;20140;-78
2022/06/19 09:55:49;;;;;;;15.65;7.40;;;;;;;36.95;27.46;95633.63;4993789;28;20030;-79
2022/06/19 09:58:29;;;;;;;22.15;7.95;;;;;;;36.69;27.43;95632.03;4984597;28;20034;-79
2022/06/19 10:01:00;;;;;;;15.82;6.88;;;;;;;37.01;26.86;95622.13;4970463;28;20065;-78
2022/06/19 10:03:38;;;;;;;15.40;7.70;;;;;;;37.55;27.42;95629.25;4996802;28;20038;-78
2022/06/19 10:06:17;;;;;;;12.27;6.40;;;;;;;38.13;26.57;95617.91;5002873;28;20034;-79
2022/06/19 10:08:51;;;;;;;11.55;7.30;;;;;;;39.12;25.59;95622.38;4988126;28;20035;-79
2022/06/19 10:11:38;;;;;;;14.85;7.57;;;;;;;38.49;26.27;95622.41;4998001;28;20609;-79
2022/06/19 10:14:13;;;;;;;14.68;7.30;;;;;;;38.56;25.63;95622.59;4998879;28;20031;-80
2022/06/19 10:16:58;;;;;;;16.45;7.82;;;;;;;38.73;25.76;95613.19;5000840;28;20172;-80
2022/06/19 10:19:50;;;;;;;14.23;7.38;;;;;;;38.87;24.76;95607.28;4991456;28;20165;-79
2022/06/19 10:22:29;;;;;;;17.77;8.77;;;;;;;37.63;26.50;95614.59;4995645;28;20049;-80
2022/06/19 10:25:13;;;;;;;18.13;8.45;;;;;;;37.77;26.33;95616.16;4992050;28;20034;-79
2022/06/19 10:27:44;;;;;;;11.48;6.93;;;;;;;37.87;26.00;95610.16;4999831;28;20042;-79
2022/06/19 10:30:22;;;;;;;37.17;18.38;;;;;;;37.91;26.34;95611.88;4982291;28;20125;-79
2022/06/19 10:32:55;;;;;;;16.20;7.15;;;;;;;37.58;26.25;95601.09;4973705;28;20093;-79
2022/06/19 10:35:55;;;;;;;15.57;6.88;;;;;;;38.33;25.07;95600.44;4999785;28;20036;-80
2022/06/19 10:38:58;;;;;;;15.63;7.03;;;;;;;38.55;25.17;95593.53;4995438;28;20616;-81
2022/06/19 10:42:05;;;;;;;15.73;8.40;;;;;;;38.06;25.09;95598.50;4988448;28;20038;-79
2022/06/19 10:45:02;;;;;;;13.18;7.40;;;;;;;38.26;24.58;95596.69;4990326;28;20042;-79
2022/06/19 10:47:36;;;;;;;12.27;6.80;;;;;;;38.25;24.82;95592.34;4994999;28;20118;-81
2022/06/19 10:50:23;;;;;;;14.63;8.63;;;;;;;38.12;25.11;95599.84;5007414;28;20466;-81
2022/06/19 10:53:16;;;;;;;13.32;7.70;;;;;;;37.84;24.69;95600.66;4986321;28;20027;-80
2022/06/19 10:56:07;;;;;;;13.13;7.35;;;;;;;38.08;24.92;95597.03;4999031;28;20436;-81
2022/06/19 10:58:34;;;;;;;16.20;7.10;;;;;;;37.11;25.73;95593.44;5001683;28;20439;-81
2022/06/19 11:01:07;;;;;;;14.70;8.27;;;;;;;37.75;25.61;95598.06;4995977;28;20077;-80
2022/06/19 11:06:47;;;;;;;17.17;8.40;;;;;;;38.03;24.75;95589.06;4986164;28;20468;-80
2022/06/19 11:09:41;;;;;;;12.85;6.90;;;;;;;37.63;25.86;95592.66;4975466;28;20038;-80
2022/06/19 11:12:23;;;;;;;17.83;7.80;;;;;;;37.10;25.44;95580.88;4999321;28;20084;-81
2022/06/19 11:14:54;;;;;;;15.55;7.43;;;;;;;36.67;25.51;95576.78;5003910;28;20080;-80
2022/06/19 11:17:39;;;;;;;17.35;9.38;;;;;;;37.26;26.07;95556.28;4992994;28;20081;-80
2022/06/19 11:20:24;;;;;;;19.20;9.85;;;;;;;37.53;25.66;95559.41;4996464;28;20038;-81
2022/06/19 11:23:01;;;;;;;16.10;8.25;;;;;;;36.58;26.45;95560.44;4998873;28;20038;-80
2022/06/19 11:25:32;;;;;;;18.10;8.30;;;;;;;37.40;25.59;95556.69;5000884;28;20128;-81
2022/06/19 11:28:17;;;;;;;15.95;7.75;;;;;;;37.15;24.66;95558.69;4982092;28;20026;-80
2022/06/19 11:30:51;;;;;;;15.82;8.20;;;;;;;37.86;24.94;95562.69;4986826;28;20038;-80
2022/06/19 11:33:20;;;;;;;16.50;8.15;;;;;;;37.47;25.19;95556.91;4989637;28;20447;-80
2022/06/19 11:35:51;;;;;;;15.75;7.45;;;;;;;38.49;24.88;95550.19;4984179;28;20391;-80
2022/06/19 11:38:54;;;;;;;16.33;8.35;;;;;;;38.23;23.96;95551.50;4977195;28;20035;-80
2022/06/19 11:41:30;;;;;;;17.85;8.15;;;;;;;38.28;24.48;95556.72;4967342;28;20050;-80
2022/06/19 11:44:14;;;;;;;14.05;8.23;;;;;;;38.59;23.03;95544.16;4995983;28;20038;-79
2022/06/19 11:46:47;;;;;;;18.92;7.57;;;;;;;38.36;23.58;95542.03;4998838;28;20483;-80
2022/06/19 11:49:21;;;;;;;17.35;8.38;;;;;;;38.01;23.66;95552.13;5004026;28;20042;-80
2022/06/19 11:51:47;;;;;;;19.58;8.27;;;;;;;37.96;22.64;95548.50;4991137;28;20115;-80
2022/06/19 11:54:15;;;;;;;16.08;8.55;;;;;;;37.59;23.50;95547.81;4979056;28;20043;-80